createdAt,value
2018-01-24T00:00:01.858Z,8.09
2018-01-24T00:01:01.424Z,8.08
2018-01-24T00:02:01.276Z,8.12
2018-01-24T00:03:00.649Z,8.12
2018-01-24T00:04:01.260Z,8.08
2018-01-24T00:05:01.190Z,8.1
2018-01-24T00:06:00.645Z,8.14
2018-01-24T00:07:00.503Z,8.13
2018-01-24T00:08:00.795Z,8.14
2018-01-24T00:09:01.214Z,8.13
2018-01-24T00:10:03.018Z,8.13
2018-01-24T00:11:01.779Z,8.13
2018-01-24T00:12:01.262Z,8.13
2018-01-24T00:13:01.482Z,8.12
2018-01-24T00:14:01.758Z,8.13
2018-01-24T00:15:02.869Z,8.19
2018-01-24T00:16:03.827Z,8.19
2018-01-24T00:17:00.604Z,8.16
2018-01-24T00:18:01.366Z,8.17
2018-01-24T00:19:03.406Z,8.17
2018-01-24T00:20:02.692Z,8.17
2018-01-24T00:21:01.435Z,8.14
2018-01-24T00:22:01.882Z,8.19
2018-01-24T00:23:03.311Z,8.16
2018-01-24T00:24:00.856Z,8.17
2018-01-24T00:25:00.636Z,8.14
2018-01-24T00:26:01.216Z,8.16
2018-01-24T00:27:02.349Z,8.19
2018-01-24T00:28:00.629Z,8.17
2018-01-24T00:29:01.217Z,8.2
2018-01-24T00:30:02.658Z,8.19
2018-01-24T00:31:01.742Z,8.2
2018-01-24T00:32:01.042Z,8.19
2018-01-24T00:33:02.145Z,8.26
2018-01-24T00:34:00.801Z,8.24
2018-01-24T00:35:00.573Z,8.24
2018-01-24T00:36:01.308Z,8.23
2018-01-24T00:37:02.770Z,8.23
2018-01-24T00:38:02.776Z,8.23
2018-01-24T00:39:01.084Z,8.23
2018-01-24T00:40:00.683Z,8.26
2018-01-24T00:41:01.610Z,8.29
2018-01-24T00:42:01.758Z,8.27
2018-01-24T00:43:01.444Z,8.3
2018-01-24T00:44:00.604Z,8.3
2018-01-24T00:45:00.655Z,8.31
2018-01-24T00:46:01.693Z,8.33
2018-01-24T00:47:01.611Z,8.3
2018-01-24T00:48:02.097Z,8.31
2018-01-24T00:49:01.297Z,8.31
2018-01-24T00:50:01.513Z,8.27
2018-01-24T00:51:00.714Z,8.27
2018-01-24T00:52:01.418Z,8.27
2018-01-24T00:53:00.868Z,8.24
2018-01-24T00:54:01.547Z,8.24
2018-01-24T00:55:02.540Z,8.27
2018-01-24T00:56:03.050Z,8.24
2018-01-24T00:57:01.099Z,8.24
2018-01-24T00:58:01.506Z,8.24
2018-01-24T00:59:00.662Z,8.24
2018-01-24T01:00:02.432Z,8.21
2018-01-24T01:01:01.250Z,8.21
2018-01-24T01:02:00.651Z,8.21
2018-01-24T01:03:00.608Z,8.23
2018-01-24T01:04:01.274Z,8.24
2018-01-24T01:05:01.639Z,8.23
2018-01-24T01:06:01.169Z,8.26
2018-01-24T01:07:01.400Z,8.23
2018-01-24T01:08:01.382Z,8.21
2018-01-24T01:09:01.873Z,8.23
2018-01-24T01:10:01.368Z,8.21
2018-01-24T01:11:00.604Z,8.23
2018-01-24T01:12:00.777Z,8.23
2018-01-24T01:13:01.237Z,8.24
2018-01-24T01:14:01.472Z,8.21
2018-01-24T01:15:03.283Z,8.24
2018-01-24T01:16:00.617Z,8.26
2018-01-24T01:17:02.055Z,8.24
2018-01-24T01:18:01.371Z,8.23
2018-01-24T01:19:02.198Z,8.23
2018-01-24T01:20:01.253Z,8.21
2018-01-24T01:21:01.184Z,8.23
2018-01-24T01:22:03.664Z,8.23
2018-01-24T01:23:01.507Z,8.21
2018-01-24T01:24:01.370Z,8.23
2018-01-24T01:25:02.354Z,8.23
2018-01-24T01:26:02.086Z,8.24
2018-01-24T01:27:00.666Z,8.23
2018-01-24T01:28:01.467Z,8.27
2018-01-24T01:29:01.298Z,8.21
2018-01-24T01:30:00.701Z,8.23
2018-01-24T01:31:00.567Z,8.26
2018-01-24T01:32:01.964Z,8.24
2018-01-24T01:33:00.617Z,8.27
2018-01-24T01:34:01.505Z,8.26
2018-01-24T01:35:01.569Z,8.27
2018-01-24T01:36:01.191Z,8.27
2018-01-24T01:37:02.055Z,8.24
2018-01-24T01:38:03.426Z,8.24
2018-01-24T01:39:00.928Z,8.29
2018-01-24T01:40:00.679Z,8.27
2018-01-24T01:41:00.711Z,8.29
2018-01-24T01:42:01.527Z,8.26
2018-01-24T01:43:02.226Z,8.27
2018-01-24T01:44:03.434Z,8.27
2018-01-24T01:45:00.804Z,8.26
2018-01-24T01:46:01.566Z,8.27
2018-01-24T01:47:01.789Z,8.27
2018-01-24T01:48:03.752Z,8.26
2018-01-24T01:49:01.638Z,8.24
2018-01-24T01:50:02.565Z,8.26
2018-01-24T01:51:03.737Z,8.27
2018-01-24T01:52:02.001Z,8.27
2018-01-24T01:53:00.697Z,8.29
2018-01-24T01:54:00.779Z,8.27
2018-01-24T01:55:00.784Z,8.29
2018-01-24T01:56:00.880Z,8.3
2018-01-24T01:57:00.804Z,8.3
2018-01-24T01:58:00.738Z,8.31
2018-01-24T01:59:00.900Z,8.29
2018-01-24T02:00:00.908Z,8.3
2018-01-24T02:01:01.057Z,8.27
2018-01-24T02:02:00.759Z,8.31
2018-01-24T02:03:00.759Z,8.31
2018-01-24T02:04:00.753Z,8.29
2018-01-24T02:05:00.671Z,8.31
2018-01-24T02:06:00.804Z,8.33
2018-01-24T02:07:00.774Z,8.33
2018-01-24T02:08:00.809Z,8.37
2018-01-24T02:09:00.776Z,8.34
2018-01-24T02:10:00.867Z,8.36
2018-01-24T02:11:00.881Z,8.36
2018-01-24T02:12:00.814Z,8.36
2018-01-24T02:13:00.882Z,8.34
2018-01-24T02:14:01.429Z,8.3
2018-01-24T02:15:01.439Z,8.31
2018-01-24T02:16:01.114Z,8.33
2018-01-24T02:17:00.812Z,8.33
2018-01-24T02:18:00.918Z,8.34
2018-01-24T02:19:00.797Z,8.31
2018-01-24T02:20:00.901Z,8.33
2018-01-24T02:21:00.837Z,8.36
2018-01-24T02:22:00.880Z,8.36
2018-01-24T02:23:00.887Z,8.36
2018-01-24T02:24:00.973Z,8.37
2018-01-24T02:25:00.837Z,8.37
2018-01-24T02:26:00.960Z,8.37
2018-01-24T02:27:00.998Z,8.37
2018-01-24T02:28:00.884Z,8.37
2018-01-24T02:29:00.724Z,8.36
2018-01-24T02:30:00.932Z,8.38
2018-01-24T02:31:00.835Z,8.37
2018-01-24T02:32:00.864Z,8.43
2018-01-24T02:33:01.520Z,8.43
2018-01-24T02:34:00.745Z,8.44
2018-01-24T02:35:00.845Z,8.48
2018-01-24T02:36:00.816Z,8.45
2018-01-24T02:37:00.870Z,8.45
2018-01-24T02:38:01.232Z,8.45
2018-01-24T02:39:00.961Z,8.47
2018-01-24T02:40:01.025Z,8.45
2018-01-24T02:41:00.892Z,8.43
2018-01-24T02:42:00.876Z,8.43
2018-01-24T02:43:00.916Z,8.45
2018-01-24T02:44:00.814Z,8.47
2018-01-24T02:45:00.833Z,8.45
2018-01-24T02:46:00.831Z,8.47
2018-01-24T02:47:00.940Z,8.44
2018-01-24T02:48:00.844Z,8.44
2018-01-24T02:49:00.916Z,8.48
2018-01-24T02:50:00.972Z,8.45
2018-01-24T02:51:00.844Z,8.48
2018-01-24T02:52:00.871Z,8.47
2018-01-24T02:53:00.826Z,8.43
2018-01-24T02:54:00.990Z,8.44
2018-01-24T02:55:00.936Z,8.47
2018-01-24T02:56:00.840Z,8.44
2018-01-24T02:57:00.974Z,8.44
2018-01-24T02:58:00.902Z,8.44
2018-01-24T02:59:00.907Z,8.44
2018-01-24T03:00:01.038Z,8.47
2018-01-24T03:01:00.876Z,8.44
2018-01-24T03:02:00.790Z,8.41
2018-01-24T03:03:00.960Z,8.43
2018-01-24T03:04:00.916Z,8.4
2018-01-24T03:05:00.832Z,8.43
2018-01-24T03:06:00.925Z,8.43
2018-01-24T03:07:00.980Z,8.4
2018-01-24T03:08:00.951Z,8.44
2018-01-24T03:09:00.806Z,8.44
2018-01-24T03:10:00.735Z,8.47
2018-01-24T03:11:00.858Z,8.49
2018-01-24T03:12:00.987Z,8.49
2018-01-24T03:13:01.063Z,8.45
2018-01-24T03:14:00.965Z,8.49
2018-01-24T03:15:00.937Z,8.48
2018-01-24T03:16:01.101Z,8.49
2018-01-24T03:17:00.982Z,8.49
2018-01-24T03:18:00.943Z,8.51
2018-01-24T03:19:01.006Z,8.51
2018-01-24T03:20:01.062Z,8.51
2018-01-24T03:21:00.960Z,8.49
2018-01-24T03:22:00.803Z,8.49
2018-01-24T03:23:00.868Z,8.49
2018-01-24T03:25:01.650Z,8.49
2018-01-24T03:26:00.832Z,8.48
2018-01-24T03:27:00.986Z,8.49
2018-01-24T03:28:00.853Z,8.51
2018-01-24T03:29:00.975Z,8.48
2018-01-24T03:30:01.033Z,8.48
2018-01-24T03:31:01.042Z,8.49
2018-01-24T03:32:00.953Z,8.48
2018-01-24T03:33:00.950Z,8.51
2018-01-24T03:34:01.046Z,8.55
2018-01-24T03:35:00.927Z,8.51
2018-01-24T03:36:00.943Z,8.54
2018-01-24T03:37:00.881Z,8.51
2018-01-24T03:38:00.857Z,8.52
2018-01-24T03:39:00.882Z,8.49
2018-01-24T03:40:00.779Z,8.49
2018-01-24T03:41:00.844Z,8.54
2018-01-24T03:42:00.874Z,8.54
2018-01-24T03:43:01.036Z,8.52
2018-01-24T03:44:01.117Z,8.49
2018-01-24T03:45:00.914Z,8.51
2018-01-24T03:46:00.785Z,8.48
2018-01-24T03:47:00.908Z,8.47
2018-01-24T03:48:00.924Z,8.44
2018-01-24T03:49:00.922Z,8.45
2018-01-24T03:50:00.964Z,8.45
2018-01-24T03:51:01.036Z,8.44
2018-01-24T03:52:01.057Z,8.44
2018-01-24T03:53:01.108Z,8.43
2018-01-24T03:54:00.936Z,8.44
2018-01-24T03:55:01.033Z,8.43
2018-01-24T03:56:00.992Z,8.4
2018-01-24T03:57:01.066Z,8.41
2018-01-24T03:58:00.880Z,8.4
2018-01-24T03:59:01.030Z,8.4
2018-01-24T04:00:01.114Z,8.4
2018-01-24T04:01:01.064Z,8.4
2018-01-24T04:02:00.998Z,8.41
2018-01-24T04:03:00.896Z,8.43
2018-01-24T04:04:01.008Z,8.4
2018-01-24T04:05:01.033Z,8.44
2018-01-24T04:06:01.165Z,8.41
2018-01-24T04:07:01.195Z,8.43
2018-01-24T04:08:01.022Z,8.45
2018-01-24T04:09:00.915Z,8.44
2018-01-24T04:10:01.119Z,8.45
2018-01-24T04:11:00.858Z,8.45
2018-01-24T04:12:01.045Z,8.48
2018-01-24T04:13:01.069Z,8.49
2018-01-24T04:14:01.013Z,8.49
2018-01-24T04:15:00.999Z,8.49
2018-01-24T04:16:01.041Z,8.47
2018-01-24T04:17:00.911Z,8.47
2018-01-24T04:18:00.885Z,8.45
2018-01-24T04:19:00.919Z,8.49
2018-01-24T04:20:00.973Z,8.48
2018-01-24T04:21:01.156Z,8.49
2018-01-24T04:22:01.086Z,8.52
2018-01-24T04:23:00.874Z,8.49
2018-01-24T04:24:00.970Z,8.48
2018-01-24T04:25:00.985Z,8.49
2018-01-24T04:26:01.122Z,8.49
2018-01-24T04:27:01.094Z,8.47
2018-01-24T04:28:00.894Z,8.47
2018-01-24T04:29:01.052Z,8.45
2018-01-24T04:30:01.086Z,8.48
2018-01-24T04:31:00.863Z,8.44
2018-01-24T04:32:01.025Z,8.45
2018-01-24T04:33:01.022Z,8.45
2018-01-24T04:34:00.973Z,8.47
2018-01-24T04:35:00.953Z,8.48
2018-01-24T04:36:00.998Z,8.48
2018-01-24T04:37:01.086Z,8.51
2018-01-24T04:38:00.978Z,8.49
2018-01-24T04:39:00.833Z,8.49
2018-01-24T04:40:00.878Z,8.49
2018-01-24T04:41:00.873Z,8.48
2018-01-24T04:42:01.164Z,8.49
2018-01-24T04:43:00.975Z,8.51
2018-01-24T04:44:00.993Z,8.49
2018-01-24T04:45:01.187Z,8.51
2018-01-24T04:46:00.930Z,8.49
2018-01-24T04:47:00.925Z,8.49
2018-01-24T04:48:01.039Z,8.48
2018-01-24T04:49:01.138Z,8.49
2018-01-24T04:50:01.074Z,8.48
2018-01-24T04:51:00.965Z,8.49
2018-01-24T04:52:01.062Z,8.48
2018-01-24T04:53:01.047Z,8.49
2018-01-24T04:54:00.948Z,8.48
2018-01-24T04:57:01.105Z,8.49
2018-01-24T04:58:01.212Z,8.48
2018-01-24T04:59:01.161Z,8.49
2018-01-24T05:00:01.240Z,8.48
2018-01-24T05:01:01.076Z,8.49
2018-01-24T05:02:01.056Z,8.48
2018-01-24T05:03:01.293Z,8.49
2018-01-24T05:04:01.062Z,8.48
2018-01-24T05:05:01.099Z,8.49
2018-01-24T05:06:01.124Z,8.52
2018-01-24T05:07:01.172Z,8.54
2018-01-24T05:08:01.206Z,8.55
2018-01-24T05:09:01.216Z,8.55
2018-01-24T05:10:01.061Z,8.57
2018-01-24T05:11:01.081Z,8.52
2018-01-24T05:12:01.292Z,8.54
2018-01-24T05:13:01.143Z,8.52
2018-01-24T05:14:01.305Z,8.52
2018-01-24T05:15:01.253Z,8.54
2018-01-24T05:16:01.256Z,8.52
2018-01-24T05:17:01.052Z,8.51
2018-01-24T05:18:01.072Z,8.54
2018-01-24T05:19:01.184Z,8.52
2018-01-24T05:20:01.188Z,8.55
2018-01-24T05:21:01.178Z,8.55
2018-01-24T05:22:01.189Z,8.54
2018-01-24T05:23:01.047Z,8.57
2018-01-24T05:24:01.199Z,8.57
2018-01-24T05:25:01.140Z,8.57
2018-01-24T05:26:01.109Z,8.61
2018-01-24T05:27:01.169Z,8.58
2018-01-24T05:28:01.163Z,8.58
2018-01-24T05:29:01.075Z,8.58
2018-01-24T05:30:01.088Z,8.58
2018-01-24T05:31:01.267Z,8.59
2018-01-24T05:32:01.274Z,8.58
2018-01-24T05:33:01.048Z,8.57
2018-01-24T05:34:01.293Z,8.58
2018-01-24T05:35:01.153Z,8.58
2018-01-24T05:36:01.971Z,8.58
2018-01-24T05:37:01.270Z,8.57
2018-01-24T05:38:01.058Z,8.58
2018-01-24T05:39:00.907Z,8.57
2018-01-24T05:40:01.050Z,8.54
2018-01-24T05:41:01.084Z,8.57
2018-01-24T05:42:01.064Z,8.58
2018-01-24T05:43:01.127Z,8.57
2018-01-24T05:44:01.087Z,8.57
2018-01-24T05:45:01.109Z,8.57
2018-01-24T05:46:01.041Z,8.57
2018-01-24T05:47:01.085Z,8.55
2018-01-24T05:48:01.200Z,8.57
2018-01-24T05:49:01.091Z,8.55
2018-01-24T05:50:01.221Z,8.58
2018-01-24T05:51:01.095Z,8.55
2018-01-24T05:52:01.098Z,8.54
2018-01-24T05:53:01.213Z,8.55
2018-01-24T05:54:01.274Z,8.54
2018-01-24T05:55:01.202Z,8.54
2018-01-24T05:56:01.025Z,8.58
2018-01-24T05:57:01.126Z,8.55
2018-01-24T05:58:01.258Z,8.58
2018-01-24T05:59:01.237Z,8.55
2018-01-24T06:00:01.555Z,8.55
2018-01-24T06:01:01.152Z,8.55
2018-01-24T06:02:01.199Z,8.57
2018-01-24T06:03:01.115Z,8.55
2018-01-24T06:04:01.184Z,8.54
2018-01-24T06:05:01.247Z,8.55
2018-01-24T06:06:01.124Z,8.55
2018-01-24T06:07:01.057Z,8.54
2018-01-24T06:08:01.184Z,8.54
2018-01-24T06:09:01.190Z,8.55
2018-01-24T06:10:01.224Z,8.54
2018-01-24T06:11:01.172Z,8.54
2018-01-24T06:12:01.925Z,8.52
2018-01-24T06:13:01.303Z,8.52
2018-01-24T06:14:01.356Z,8.51
2018-01-24T06:15:01.259Z,8.52
2018-01-24T06:16:01.397Z,8.49
2018-01-24T06:17:01.301Z,8.51
2018-01-24T06:18:01.200Z,8.52
2018-01-24T06:19:01.363Z,8.49
2018-01-24T06:20:01.238Z,8.51
2018-01-24T06:21:01.153Z,8.48
2018-01-24T06:22:01.365Z,8.48
2018-01-24T06:23:01.371Z,8.51
2018-01-24T06:24:01.176Z,8.51
2018-01-24T06:25:01.371Z,8.47
2018-01-24T06:26:01.229Z,8.47
2018-01-24T06:27:01.296Z,8.48
2018-01-24T06:28:01.290Z,8.48
2018-01-24T06:29:01.077Z,8.44
2018-01-24T06:30:01.296Z,8.45
2018-01-24T06:31:01.309Z,8.47
2018-01-24T06:32:01.244Z,8.45
2018-01-24T06:33:01.356Z,8.47
2018-01-24T06:34:01.179Z,8.44
2018-01-24T06:35:01.176Z,8.45
2018-01-24T06:36:01.502Z,8.45
2018-01-24T06:37:01.145Z,8.41
2018-01-24T06:38:01.149Z,8.43
2018-01-24T06:39:01.163Z,8.43
2018-01-24T06:40:01.321Z,8.4
2018-01-24T06:41:01.192Z,8.43
2018-01-24T06:42:01.396Z,8.44
2018-01-24T06:43:00.309Z,8.41
2018-01-24T06:44:00.714Z,8.43
2018-01-24T06:45:00.467Z,8.4
2018-01-24T06:46:00.342Z,8.38
2018-01-24T06:47:00.388Z,8.38
2018-01-24T06:48:00.357Z,8.4
2018-01-24T06:49:00.364Z,8.36
2018-01-24T06:50:00.396Z,8.38
2018-01-24T06:51:00.367Z,8.38
2018-01-24T06:52:00.334Z,8.37
2018-01-24T06:53:00.276Z,8.34
2018-01-24T06:54:00.254Z,8.36
2018-01-24T06:55:00.495Z,8.33
2018-01-24T06:56:00.203Z,8.34
2018-01-24T06:57:00.268Z,8.36
2018-01-24T06:58:00.463Z,8.37
2018-01-24T06:59:00.408Z,8.34
2018-01-24T07:00:01.375Z,8.34
2018-01-24T07:01:00.605Z,8.34
2018-01-24T07:02:00.378Z,8.36
2018-01-24T07:03:00.414Z,8.33
2018-01-24T07:04:00.570Z,8.36
2018-01-24T07:05:00.384Z,8.33
2018-01-24T07:06:00.389Z,8.34
2018-01-24T07:07:00.376Z,8.34
2018-01-24T07:08:00.280Z,8.31
2018-01-24T07:09:00.922Z,8.31
2018-01-24T07:10:00.488Z,8.33
2018-01-24T07:11:00.375Z,8.3
2018-01-24T07:12:00.331Z,8.31
2018-01-24T07:13:00.655Z,8.31
2018-01-24T07:14:00.468Z,8.31
2018-01-24T07:15:00.522Z,8.3
2018-01-24T07:16:00.461Z,8.33
2018-01-24T07:17:00.302Z,8.31
2018-01-24T07:18:00.359Z,8.3
2018-01-24T07:19:00.495Z,8.3
2018-01-24T07:20:00.581Z,8.31
2018-01-24T07:21:00.752Z,8.31
2018-01-24T07:22:00.317Z,8.3
2018-01-24T07:23:00.383Z,8.27
2018-01-24T07:24:00.345Z,8.3
2018-01-24T07:25:00.340Z,8.29
2018-01-24T07:26:00.504Z,8.3
2018-01-24T07:27:00.785Z,8.27
2018-01-24T07:28:00.267Z,8.3
2018-01-24T07:29:00.357Z,8.3
2018-01-24T07:30:00.363Z,8.27
2018-01-24T07:31:00.526Z,8.3
2018-01-24T07:32:00.500Z,8.29
2018-01-24T07:33:00.438Z,8.29
2018-01-24T07:34:00.352Z,8.29
2018-01-24T07:35:01.193Z,8.29
2018-01-24T07:36:00.560Z,8.31
2018-01-24T07:37:00.709Z,8.31
2018-01-24T07:38:00.433Z,8.3
2018-01-24T07:39:02.707Z,8.31
2018-01-24T07:40:00.522Z,8.33
2018-01-24T07:41:02.187Z,8.31
2018-01-24T07:42:00.986Z,8.3
2018-01-24T07:43:00.633Z,8.33
2018-01-24T07:44:02.207Z,8.31
2018-01-24T07:45:01.871Z,8.36
2018-01-24T07:46:01.828Z,8.33
2018-01-24T07:47:07.962Z,8.33
2018-01-24T07:48:01.055Z,8.33
2018-01-24T07:49:01.198Z,8.36
2018-01-24T07:50:02.294Z,8.34
2018-01-24T07:51:01.501Z,8.36
2018-01-24T07:52:04.035Z,8.36
2018-01-24T07:53:03.703Z,8.38
2018-01-24T07:54:00.522Z,8.37
2018-01-24T07:55:03.989Z,8.38
2018-01-24T07:56:01.311Z,8.38
2018-01-24T07:57:00.504Z,8.4
2018-01-24T07:58:02.806Z,8.41
2018-01-24T07:59:04.136Z,8.41
2018-01-24T08:00:01.683Z,8.4
2018-01-24T08:01:01.432Z,8.41
2018-01-24T08:02:02.048Z,8.44
2018-01-24T08:03:02.098Z,8.47
2018-01-24T08:04:01.284Z,8.45
2018-01-24T08:05:01.944Z,8.45
2018-01-24T08:06:02.311Z,8.48
2018-01-24T08:07:00.617Z,8.48
2018-01-24T08:08:01.837Z,8.48
2018-01-24T08:09:00.458Z,8.52
2018-01-24T08:10:00.533Z,8.51
2018-01-24T08:11:00.513Z,8.54
2018-01-24T08:12:00.517Z,8.55
2018-01-24T08:13:00.486Z,8.57
2018-01-24T08:14:00.839Z,8.58
2018-01-24T08:15:00.437Z,8.57
2018-01-24T08:16:00.574Z,8.61
2018-01-24T08:17:00.438Z,8.61
2018-01-24T08:18:00.605Z,8.62
2018-01-24T08:19:00.349Z,8.68
2018-01-24T08:20:00.524Z,8.66
2018-01-24T08:21:00.660Z,8.66
2018-01-24T08:22:00.371Z,8.69
2018-01-24T08:23:00.481Z,8.68
2018-01-24T08:24:00.539Z,8.71
2018-01-24T08:25:00.603Z,8.71
2018-01-24T08:26:00.630Z,8.74
2018-01-24T08:27:00.673Z,8.75
2018-01-24T08:28:00.593Z,8.76
2018-01-24T08:29:00.738Z,8.76
2018-01-24T08:30:00.437Z,8.78
2018-01-24T08:31:00.469Z,8.78
2018-01-24T08:32:00.626Z,8.78
2018-01-24T08:33:00.538Z,8.8
2018-01-24T08:34:00.746Z,8.8
2018-01-24T08:35:00.577Z,8.8
2018-01-24T08:36:00.577Z,8.83
2018-01-24T08:37:00.618Z,8.85
2018-01-24T08:38:00.713Z,8.88
2018-01-24T08:39:01.244Z,8.88
2018-01-24T08:40:00.556Z,8.91
2018-01-24T08:41:00.526Z,8.93
2018-01-24T08:42:00.556Z,8.95
2018-01-24T08:43:00.630Z,8.99
2018-01-24T08:44:00.417Z,9
2018-01-24T08:45:00.595Z,9
2018-01-24T08:46:00.546Z,9.06
2018-01-24T08:47:00.457Z,9.09
2018-01-24T08:48:00.687Z,9.09
2018-01-24T08:49:00.566Z,9.11
2018-01-24T08:50:00.675Z,9.13
2018-01-24T08:51:00.672Z,9.19
2018-01-24T08:52:00.537Z,9.17
2018-01-24T08:53:00.523Z,9.2
2018-01-24T08:54:00.568Z,9.19
2018-01-24T08:55:00.582Z,9.2
2018-01-24T08:56:00.834Z,9.19
2018-01-24T08:57:00.478Z,9.26
2018-01-24T08:58:00.482Z,9.29
2018-01-24T08:59:00.635Z,9.26
2018-01-24T09:00:00.539Z,9.3
2018-01-24T09:01:00.790Z,9.29
2018-01-24T09:02:00.747Z,9.3
2018-01-24T09:03:00.583Z,9.3
2018-01-24T09:04:00.555Z,9.3
2018-01-24T09:05:00.600Z,9.33
2018-01-24T09:06:00.571Z,9.31
2018-01-24T09:07:00.624Z,9.34
2018-01-24T09:08:00.570Z,9.38
2018-01-24T09:09:00.525Z,9.37
2018-01-24T09:10:00.596Z,9.37
2018-01-24T09:11:00.573Z,9.37
2018-01-24T09:12:00.713Z,9.35
2018-01-24T09:13:01.532Z,9.37
2018-01-24T09:14:00.766Z,9.35
2018-01-24T09:15:00.820Z,9.37
2018-01-24T09:16:00.742Z,9.38
2018-01-24T09:17:00.672Z,9.4
2018-01-24T09:18:00.652Z,9.38
2018-01-24T09:19:00.672Z,9.41
2018-01-24T09:20:00.677Z,9.41
2018-01-24T09:21:00.594Z,9.41
2018-01-24T09:22:00.598Z,9.48
2018-01-24T09:23:00.728Z,9.48
2018-01-24T09:24:00.729Z,9.54
2018-01-24T09:25:00.596Z,9.58
2018-01-24T09:26:00.664Z,9.59
2018-01-24T09:27:00.633Z,9.65
2018-01-24T09:28:00.708Z,9.63
2018-01-24T09:29:00.703Z,9.63
2018-01-24T09:30:00.665Z,9.69
2018-01-24T09:31:00.742Z,9.7
2018-01-24T09:32:01.465Z,9.7
2018-01-24T09:33:01.712Z,9.72
2018-01-24T09:34:01.994Z,9.73
2018-01-24T09:35:01.247Z,9.75
2018-01-24T09:36:01.459Z,9.78
2018-01-24T09:37:01.750Z,9.78
2018-01-24T09:38:02.029Z,9.82
2018-01-24T09:39:01.102Z,9.82
2018-01-24T09:40:02.338Z,9.86
2018-01-24T09:41:02.075Z,9.89
2018-01-24T09:42:01.159Z,9.86
2018-01-24T09:43:01.342Z,9.88
2018-01-24T09:44:00.696Z,9.94
2018-01-24T09:45:01.678Z,10.04
2018-01-24T09:46:01.266Z,10.07
2018-01-24T09:47:01.392Z,10.09
2018-01-24T09:48:01.814Z,10.1
2018-01-24T09:49:00.901Z,10.14
2018-01-24T09:50:01.746Z,10.2
2018-01-24T09:51:01.897Z,10.2
2018-01-24T09:52:02.044Z,10.23
2018-01-24T09:53:01.269Z,10.24
2018-01-24T09:54:01.360Z,10.25
2018-01-24T09:55:01.752Z,10.31
2018-01-24T09:56:01.521Z,10.32
2018-01-24T09:57:01.873Z,10.3
2018-01-24T09:58:01.980Z,10.3
2018-01-24T09:59:00.772Z,10.39
2018-01-24T10:00:01.599Z,10.42
2018-01-24T10:01:01.818Z,10.44
2018-01-24T10:02:01.988Z,10.47
2018-01-24T10:03:02.054Z,10.45
2018-01-24T10:04:01.499Z,10.45
2018-01-24T10:05:00.710Z,10.45
2018-01-24T10:06:01.468Z,10.53
2018-01-24T10:07:01.796Z,10.55
2018-01-24T10:08:01.393Z,10.53
2018-01-24T10:09:01.756Z,10.53
2018-01-24T10:10:00.689Z,10.55
2018-01-24T10:11:01.574Z,10.55
2018-01-24T10:12:01.612Z,10.58
2018-01-24T10:13:01.814Z,10.66
2018-01-24T10:14:02.268Z,10.69
2018-01-24T10:15:01.496Z,10.71
2018-01-24T10:16:01.812Z,10.71
2018-01-24T10:17:00.784Z,10.78
2018-01-24T10:18:02.747Z,10.78
2018-01-24T10:19:02.098Z,10.83
2018-01-24T10:20:01.520Z,10.84
2018-01-24T10:21:01.517Z,10.9
2018-01-24T10:22:01.927Z,10.94
2018-01-24T10:23:01.990Z,10.99
2018-01-24T10:24:01.342Z,11
2018-01-24T10:25:01.416Z,11.1
2018-01-24T10:26:00.935Z,11.15
2018-01-24T10:27:02.067Z,11.18
2018-01-24T10:28:01.269Z,11.17
2018-01-24T10:29:01.377Z,11.18
2018-01-24T10:30:00.787Z,11.18
2018-01-24T10:31:00.800Z,11.22
2018-01-24T10:32:01.550Z,11.3
2018-01-24T10:33:02.012Z,11.31
2018-01-24T10:34:01.851Z,11.32
2018-01-24T10:35:01.993Z,11.35
2018-01-24T10:36:02.653Z,11.38
2018-01-24T10:37:01.705Z,11.41
2018-01-24T10:38:01.669Z,11.42
2018-01-24T10:39:01.905Z,11.47
2018-01-24T10:40:01.973Z,11.52
2018-01-24T10:41:01.832Z,11.55
2018-01-24T10:42:01.672Z,11.56
2018-01-24T10:43:01.769Z,11.58
2018-01-24T10:44:00.659Z,11.55
2018-01-24T10:45:01.873Z,11.54
2018-01-24T10:46:01.540Z,11.54
2018-01-24T10:47:01.424Z,11.55
2018-01-24T10:48:01.864Z,11.61
2018-01-24T10:49:01.710Z,11.65
2018-01-24T10:50:01.964Z,11.69
2018-01-24T10:51:01.711Z,11.73
2018-01-24T10:52:00.854Z,11.7
2018-01-24T10:53:01.675Z,11.76
2018-01-24T10:54:01.394Z,11.79
2018-01-24T10:55:01.530Z,11.76
2018-01-24T10:56:01.656Z,11.8
2018-01-24T10:57:01.878Z,11.82
2018-01-24T10:58:01.520Z,11.84
2018-01-24T10:59:01.545Z,11.84
2018-01-24T11:00:01.563Z,11.86
2018-01-24T11:01:01.898Z,11.83
2018-01-24T11:02:01.802Z,11.89
2018-01-24T11:03:01.800Z,11.9
2018-01-24T11:04:00.844Z,11.94
2018-01-24T11:05:01.638Z,11.98
2018-01-24T11:06:01.503Z,11.98
2018-01-24T11:07:01.894Z,12.03
2018-01-24T11:08:01.900Z,12.07
2018-01-24T11:09:01.585Z,12.11
2018-01-24T11:10:01.970Z,12.08
2018-01-24T11:11:02.315Z,12.14
2018-01-24T11:12:01.716Z,12.18
2018-01-24T11:13:01.516Z,12.24
2018-01-24T11:14:01.472Z,12.23
2018-01-24T11:15:01.654Z,12.24
2018-01-24T11:16:01.906Z,12.27
2018-01-24T11:17:01.750Z,12.28
2018-01-24T11:18:01.858Z,12.29
2018-01-24T11:19:02.025Z,12.31
2018-01-24T11:20:01.910Z,12.34
2018-01-24T11:21:01.745Z,12.37
2018-01-24T11:22:01.784Z,12.38
2018-01-24T11:23:02.529Z,12.38
2018-01-24T11:24:01.769Z,12.42
2018-01-24T11:25:01.690Z,12.41
2018-01-24T11:26:01.588Z,12.42
2018-01-24T11:27:01.779Z,12.45
2018-01-24T11:28:01.929Z,12.49
2018-01-24T11:29:01.654Z,12.55
2018-01-24T11:30:01.258Z,12.51
2018-01-24T11:31:00.724Z,12.52
2018-01-24T11:32:00.812Z,12.56
2018-01-24T11:33:00.625Z,12.55
2018-01-24T11:34:00.662Z,12.56
2018-01-24T11:35:00.744Z,12.59
2018-01-24T11:36:00.839Z,12.56
2018-01-24T11:37:00.722Z,12.59
2018-01-24T11:38:00.824Z,12.59
2018-01-24T11:39:00.605Z,12.57
2018-01-24T11:40:00.755Z,12.59
2018-01-24T11:41:00.742Z,12.56
2018-01-24T11:42:00.647Z,12.62
2018-01-24T11:43:00.809Z,12.6
2018-01-24T11:44:00.933Z,12.59
2018-01-24T11:45:00.735Z,12.62
2018-01-24T11:46:00.745Z,12.62
2018-01-24T11:47:00.630Z,12.66
2018-01-24T11:48:00.574Z,12.67
2018-01-24T11:49:00.973Z,12.69
2018-01-24T11:50:00.728Z,12.73
2018-01-24T11:51:00.892Z,12.72
2018-01-24T11:52:00.855Z,12.74
2018-01-24T11:53:00.920Z,12.7
2018-01-24T11:54:00.834Z,12.69
2018-01-24T11:55:01.416Z,12.67
2018-01-24T11:56:00.936Z,12.65
2018-01-24T11:57:00.839Z,12.62
2018-01-24T11:58:00.650Z,12.6
2018-01-24T11:59:00.694Z,12.57
2018-01-24T12:00:00.694Z,12.59
2018-01-24T12:01:00.814Z,12.57
2018-01-24T12:02:00.607Z,12.56
2018-01-24T12:03:00.717Z,12.57
2018-01-24T12:04:00.876Z,12.57
2018-01-24T12:05:00.717Z,12.57
2018-01-24T12:06:00.644Z,12.53
2018-01-24T12:07:00.595Z,12.52
2018-01-24T12:08:00.752Z,12.51
2018-01-24T12:09:00.846Z,12.49
2018-01-24T12:10:00.886Z,12.56
2018-01-24T12:11:00.674Z,12.56
2018-01-24T12:12:00.675Z,12.55
2018-01-24T12:13:00.797Z,12.57
2018-01-24T12:14:01.035Z,12.56
2018-01-24T12:15:00.873Z,12.56
2018-01-24T12:16:00.760Z,12.52
2018-01-24T12:17:00.876Z,12.51
2018-01-24T12:18:00.860Z,12.51
2018-01-24T12:19:01.055Z,12.48
2018-01-24T12:20:00.991Z,12.51
2018-01-24T12:21:00.835Z,12.49
2018-01-24T12:22:00.723Z,12.49
2018-01-24T12:23:00.805Z,12.45
2018-01-24T12:24:00.789Z,12.46
2018-01-24T12:25:00.948Z,12.46
2018-01-24T12:26:00.824Z,12.46
2018-01-24T12:27:00.760Z,12.42
2018-01-24T12:28:00.876Z,12.42
2018-01-24T12:29:00.966Z,12.45
2018-01-24T12:30:00.852Z,12.45
2018-01-24T12:31:00.914Z,12.44
2018-01-24T12:32:00.760Z,12.42
2018-01-24T12:33:01.000Z,12.45
2018-01-24T12:34:00.829Z,12.42
2018-01-24T12:35:00.888Z,12.41
2018-01-24T12:36:00.708Z,12.41
2018-01-24T12:37:00.721Z,12.41
2018-01-24T12:38:00.916Z,12.41
2018-01-24T12:39:00.824Z,12.39
2018-01-24T12:40:00.869Z,12.41
2018-01-24T12:41:00.756Z,12.38
2018-01-24T12:42:00.662Z,12.39
2018-01-24T12:43:00.792Z,12.37
2018-01-24T12:44:00.885Z,12.39
2018-01-24T12:45:01.151Z,12.39
2018-01-24T12:46:00.851Z,12.37
2018-01-24T12:47:00.881Z,12.37
2018-01-24T12:48:00.766Z,12.37
2018-01-24T12:49:00.820Z,12.37
2018-01-24T12:50:01.084Z,12.35
2018-01-24T12:51:00.742Z,12.37
2018-01-24T12:52:00.727Z,12.38
2018-01-24T12:53:00.903Z,12.38
2018-01-24T12:54:00.645Z,12.39
2018-01-24T12:55:00.852Z,12.41
2018-01-24T12:56:01.034Z,12.41
2018-01-24T12:57:00.795Z,12.42
2018-01-24T12:58:00.840Z,12.41
2018-01-24T12:59:00.938Z,12.39
2018-01-24T13:00:00.785Z,12.41
2018-01-24T13:01:00.837Z,12.42
2018-01-24T13:02:00.977Z,12.42
2018-01-24T13:03:00.905Z,12.41
2018-01-24T13:04:00.655Z,12.41
2018-01-24T13:05:00.930Z,12.44
2018-01-24T13:06:00.783Z,12.45
2018-01-24T13:07:01.029Z,12.45
2018-01-24T13:08:00.884Z,12.48
2018-01-24T13:09:00.809Z,12.46
2018-01-24T13:10:00.964Z,12.52
2018-01-24T13:11:00.901Z,12.49
2018-01-24T13:12:00.885Z,12.51
2018-01-24T13:13:00.888Z,12.49
2018-01-24T13:14:01.048Z,12.51
2018-01-24T13:15:00.946Z,12.49
2018-01-24T13:16:01.042Z,12.52